TAF LFRM
METAR LFRM
LFRM 280930Z AUTO 31007KT 270V360 9999 BKN026 05/01 Q1006 TEMPO BKN020TCU=
LFRM 280900Z AUTO 30005KT 250V340 9999 BKN023 BKN028 BKN038 04/01 Q1006 TEMPO BKN020TCU=
LFRM 280830Z AUTO 30005KT 240V340 9999 BKN022 OVC029 04/01 Q1006 TEMPO BKN020TCU=
LFRM 280800Z AUTO 29005KT 250V330 9999 OVC025 04/01 Q1006 TEMPO BKN020TCU=
LFRM 280730Z AUTO 29004KT 230V330 9999 BKN024 OVC029 04/01 Q1005 TEMPO BKN020TCU=
WC LFRM
WS LFRM
WV LFRM